Time;durP1;ratioP1;P1;durP2;ratioP2;P2;SDS_P1;SDS_P2;PMS_P1;PMS_P2;Temp;Humidity;BMP_temperature;BMP_pressure;BME280_temperature;BME280_humidity;BME280_pressure;Samples;Min_cycle;Max_cycle;Signal;HPM_P1;HPM_P2
2022/09/29 00:00:15;;;;;;;1.83;0.70;;;13.70;68.10;;;;;;2370214;53;20974;-75
2022/09/29 00:02:42;;;;;;;2.30;0.73;;;13.70;68.10;;;;;;2363731;53;20898;-77
2022/09/29 00:05:09;;;;;;;2.30;0.80;;;13.80;68.30;;;;;;2410051;53;21460;-76
2022/09/29 00:07:36;;;;;;;2.00;0.80;;;13.80;68.30;;;;;;2370065;53;21347;-76
2022/09/29 00:10:03;;;;;;;2.80;0.90;;;13.80;68.30;;;;;;2622628;52;21010;-76
2022/09/29 00:12:30;;;;;;;1.58;0.62;;;13.80;68.30;;;;;;2370695;53;20906;-76
2022/09/29 00:14:56;;;;;;;2.60;0.70;;;13.80;68.30;;;;;;2370382;53;20981;-76
2022/09/29 00:17:22;;;;;;;2.80;0.77;;;13.80;68.40;;;;;;2370791;53;20979;-75
2022/09/29 00:19:48;;;;;;;2.05;0.80;;;13.80;68.40;;;;;;2426325;52;20927;-76
2022/09/29 00:22:15;;;;;;;2.17;0.68;;;13.80;68.40;;;;;;2370691;53;21748;-76
2022/09/29 00:24:41;;;;;;;4.05;1.12;;;13.90;68.50;;;;;;2370515;53;20990;-75
2022/09/29 00:27:10;;;;;;;2.53;0.80;;;13.90;68.50;;;;;;2420495;52;20957;-75
2022/09/29 00:29:36;;;;;;;3.12;0.80;;;13.90;68.50;;;;;;2369708;53;21372;-76
2022/09/29 00:32:03;;;;;;;1.92;0.70;;;13.90;68.50;;;;;;2370760;53;20902;-76
2022/09/29 00:34:32;;;;;;;2.08;0.75;;;13.90;68.50;;;;;;2369474;53;21507;-76
2022/09/29 00:36:58;;;;;;;2.87;0.70;;;13.90;68.50;;;;;;2375208;52;20955;-75
2022/09/29 00:39:26;;;;;;;1.70;0.60;;;13.90;68.40;;;;;;2401778;52;20899;-76
2022/09/29 00:41:56;;;;;;;2.03;0.68;;;13.90;68.40;;;;;;2369376;53;20926;-75
2022/09/29 00:44:59;;;;;;;1.40;0.60;;;14.00;68.50;;;;;;2367008;53;20978;-76
2022/09/29 00:47:26;;;;;;;1.42;0.65;;;14.00;68.40;;;;;;2358972;53;20926;-76
2022/09/29 00:49:58;;;;;;;1.90;0.50;;;14.00;68.40;;;;;;2516638;52;20946;-76
2022/09/29 00:52:27;;;;;;;1.40;0.60;;;14.00;68.40;;;;;;2565714;52;21310;-75
2022/09/29 00:55:32;;;;;;;2.37;0.50;;;14.00;68.30;;;;;;2557483;52;20993;-76
2022/09/29 00:58:04;;;;;;;1.98;0.80;;;14.00;68.10;;;;;;2370988;53;21501;-76
2022/09/29 01:00:31;;;;;;;1.05;0.50;;;14.00;68.20;;;;;;2371378;53;21425;-76
2022/09/29 01:03:05;;;;;;;1.58;0.80;;;14.00;68.20;;;;;;2509908;52;21056;-76
2022/09/29 01:05:33;;;;;;;2.67;0.70;;;14.00;68.20;;;;;;2371004;53;21022;-76
2022/09/29 01:11:32;;;;;;;1.55;0.60;;;14.00;68.20;;;;;;2370845;53;20970;-76
2022/09/29 01:14:02;;;;;;;1.30;0.50;;;14.00;67.70;;;;;;2371595;53;20994;-76
2022/09/29 01:16:30;;;;;;;1.70;0.50;;;14.00;67.90;;;;;;2407808;52;21791;-75
2022/09/29 01:18:59;;;;;;;1.95;0.70;;;14.00;67.90;;;;;;2595419;52;20926;-75
2022/09/29 01:21:48;;;;;;;2.78;0.80;;;14.00;67.90;;;;;;2424238;52;21191;-75
2022/09/29 01:26:03;;;;;;;1.50;0.60;;;14.00;67.90;;;;;;2370117;53;21037;-75
2022/09/29 01:29:03;;;;;;;2.92;1.10;;;14.00;67.60;;;;;;2405173;52;20922;-75
2022/09/29 01:31:37;;;;;;;6.40;2.12;;;14.00;67.80;;;;;;2370308;53;21374;-75
2022/09/29 01:34:12;;;;;;;7.12;2.72;;;13.90;67.90;;;;;;2361046;53;21447;-76
2022/09/29 01:37:04;;;;;;;6.05;3.12;;;13.90;67.90;;;;;;2361739;53;20998;-76
2022/09/29 01:39:49;;;;;;;6.28;2.58;;;14.00;67.90;;;;;;2370805;53;20919;-76
2022/09/29 01:42:18;;;;;;;4.85;2.62;;;13.90;67.90;;;;;;2403411;52;20938;-75
2022/09/29 01:44:49;;;;;;;3.53;1.62;;;13.90;68.00;;;;;;2535743;52;20993;-76
2022/09/29 01:47:36;;;;;;;3.40;1.50;;;13.90;68.00;;;;;;2370550;53;20937;-76
2022/09/29 01:50:10;;;;;;;3.58;1.10;;;13.90;68.00;;;;;;2604079;52;20943;-76
2022/09/29 01:52:43;;;;;;;3.28;1.00;;;13.90;67.90;;;;;;2555460;52;21419;-76
2022/09/29 01:55:11;;;;;;;3.22;0.90;;;13.90;67.90;;;;;;2347937;53;20918;-76
2022/09/29 01:57:58;;;;;;;1.55;0.60;;;13.90;67.80;;;;;;2368361;53;20933;-76
2022/09/29 02:00:30;;;;;;;2.70;0.85;;;13.90;67.60;;;;;;2431545;52;22120;-75
2022/09/29 02:02:59;;;;;;;2.15;0.90;;;13.80;67.70;;;;;;2392086;52;20929;-76
2022/09/29 02:05:43;;;;;;;2.00;0.80;;;13.80;67.60;;;;;;2477969;52;20950;-76
2022/09/29 02:08:19;;;;;;;1.98;0.70;;;13.80;67.40;;;;;;2370978;53;21030;-76
2022/09/29 02:10:54;;;;;;;1.67;0.68;;;13.80;67.50;;;;;;2562855;52;20958;-76
2022/09/29 02:13:21;;;;;;;1.52;0.70;;;13.80;67.50;;;;;;2623514;52;21041;-75
2022/09/29 02:15:47;;;;;;;2.87;0.98;;;13.70;67.40;;;;;;2371091;53;20932;-75
2022/09/29 02:18:17;;;;;;;1.83;0.77;;;13.70;67.50;;;;;;2371009;53;20973;-76
2022/09/29 02:20:45;;;;;;;1.90;0.70;;;13.70;67.60;;;;;;2370676;53;20907;-76
2022/09/29 02:23:11;;;;;;;1.65;0.70;;;13.70;67.70;;;;;;2623291;52;20923;-76
2022/09/29 02:25:37;;;;;;;2.15;0.75;;;13.70;67.70;;;;;;2353657;53;20934;-76
2022/09/29 02:28:04;;;;;;;2.97;1.02;;;13.70;67.70;;;;;;2370811;53;21025;-76
2022/09/29 02:30:31;;;;;;;3.05;0.93;;;13.60;67.70;;;;;;2371001;53;20910;-76
2022/09/29 02:32:57;;;;;;;2.05;0.80;;;13.70;67.90;;;;;;2371106;53;21011;-76
2022/09/29 02:35:23;;;;;;;1.65;0.70;;;13.60;67.90;;;;;;2622951;52;20950;-75
2022/09/29 02:39:15;;;;;;;2.28;0.70;;;13.70;68.00;;;;;;2371116;53;20921;-75
2022/09/29 02:42:12;;;;;;;1.60;0.60;;;13.60;67.70;;;;;;2343401;53;20965;-76
2022/09/29 02:45:04;;;;;;;0.98;0.47;;;13.70;68.00;;;;;;2387753;53;20971;-76
2022/09/29 02:48:00;;;;;;;1.67;0.60;;;13.70;68.00;;;;;;2343390;53;20950;-76
2022/09/29 02:51:28;;;;;;;1.00;0.50;;;13.70;68.00;;;;;;2343041;53;21408;-76
2022/09/29 02:55:40;;;;;;;2.00;0.50;;;13.70;68.00;;;;;;2467380;52;20907;-76
2022/09/29 02:58:15;;;;;;;1.25;0.60;;;13.70;68.10;;;;;;2449477;52;20930;-75
2022/09/29 03:00:45;;;;;;;1.55;0.40;;;13.70;68.10;;;;;;2343499;54;20948;-76
2022/09/29 03:03:11;;;;;;;3.65;0.70;;;13.70;68.20;;;;;;2344157;54;21009;-75
2022/09/29 03:05:38;;;;;;;2.45;0.40;;;13.70;68.30;;;;;;2412232;52;20890;-77
2022/09/29 03:08:04;;;;;;;1.35;0.60;;;13.80;68.50;;;;;;2366070;54;21403;-76
2022/09/29 03:10:30;;;;;;;1.27;0.43;;;13.80;68.50;;;;;;2366785;54;20950;-76
2022/09/29 03:12:57;;;;;;;1.27;0.50;;;13.80;68.50;;;;;;2607304;52;20942;-76
2022/09/29 03:15:24;;;;;;;1.08;0.50;;;13.80;68.50;;;;;;2622799;52;20934;-76
2022/09/29 03:17:56;;;;;;;1.48;0.50;;;13.80;68.40;;;;;;2370226;53;20979;-76
2022/09/29 03:20:23;;;;;;;1.67;0.60;;;13.90;68.30;;;;;;2453425;52;20938;-75
2022/09/29 03:22:51;;;;;;;2.65;0.60;;;13.80;68.20;;;;;;2372892;53;20926;-76
2022/09/29 03:25:17;;;;;;;1.67;0.60;;;13.90;68.30;;;;;;2372211;53;21406;-76
2022/09/29 03:27:44;;;;;;;1.73;0.55;;;13.80;68.20;;;;;;2414391;52;20926;-75
2022/09/29 03:30:14;;;;;;;2.70;0.50;;;13.80;68.20;;;;;;2623421;52;20977;-76
2022/09/29 03:32:42;;;;;;;1.87;0.60;;;13.90;68.40;;;;;;2380818;52;21002;-75
2022/09/29 03:35:08;;;;;;;1.45;0.57;;;13.90;68.40;;;;;;2566353;52;21045;-76
2022/09/29 03:37:34;;;;;;;1.15;0.50;;;13.90;68.40;;;;;;2506900;52;20994;-76
2022/09/29 03:40:01;;;;;;;1.85;0.40;;;13.90;68.40;;;;;;2350608;53;21498;-76
2022/09/29 03:42:28;;;;;;;1.60;0.60;;;13.90;68.40;;;;;;2376058;52;21426;-76
2022/09/29 03:44:54;;;;;;;1.35;0.50;;;13.90;68.30;;;;;;2370895;53;20951;-76
2022/09/29 03:47:21;;;;;;;1.25;0.50;;;13.90;68.30;;;;;;2622968;52;20930;-76
2022/09/29 03:49:47;;;;;;;1.25;0.50;;;13.90;68.20;;;;;;2623694;52;20967;-75
2022/09/29 03:52:13;;;;;;;2.28;0.68;;;13.90;68.20;;;;;;2370913;53;21093;-75
2022/09/29 03:54:40;;;;;;;1.58;0.60;;;13.90;68.20;;;;;;2370630;53;20878;-76
2022/09/29 03:57:06;;;;;;;1.05;0.50;;;13.90;68.20;;;;;;2391061;52;20914;-76
2022/09/29 03:59:33;;;;;;;3.58;0.60;;;13.90;68.20;;;;;;2623644;52;21985;-76
2022/09/29 04:02:00;;;;;;;1.30;0.52;;;13.90;68.10;;;;;;2381278;52;21438;-75
2022/09/29 04:04:26;;;;;;;0.73;0.32;;;13.90;68.00;;;;;;2370348;53;20927;-75
2022/09/29 04:06:55;;;;;;;2.50;1.00;;;13.80;67.80;;;;;;2519040;52;21047;-76
2022/09/29 04:09:24;;;;;;;2.62;0.90;;;13.80;67.80;;;;;;2402700;53;20970;-76
2022/09/29 04:11:54;;;;;;;5.75;0.88;;;13.80;67.90;;;;;;2528263;52;21519;-76
2022/09/29 04:14:20;;;;;;;1.80;0.68;;;13.80;67.90;;;;;;2465340;52;21454;-76
2022/09/29 04:16:46;;;;;;;2.37;1.00;;;13.80;68.00;;;;;;2621126;52;22195;-76
2022/09/29 04:19:12;;;;;;;2.75;1.17;;;13.80;68.10;;;;;;2368673;53;20932;-76
2022/09/29 04:21:41;;;;;;;2.50;0.95;;;13.80;68.00;;;;;;2370119;53;20970;-75
2022/09/29 04:24:07;;;;;;;2.05;0.90;;;13.80;68.00;;;;;;2370562;53;21005;-76
2022/09/29 04:26:33;;;;;;;2.15;0.95;;;13.70;67.80;;;;;;2348567;54;21807;-75
2022/09/29 04:29:00;;;;;;;4.37;1.10;;;13.70;67.70;;;;;;2370574;53;20985;-76
2022/09/29 04:31:27;;;;;;;2.25;0.95;;;13.70;67.60;;;;;;2350494;53;20942;-76
2022/09/29 04:33:54;;;;;;;4.60;1.10;;;13.70;67.50;;;;;;2366118;53;21018;-75
2022/09/29 04:36:21;;;;;;;2.50;1.00;;;13.70;67.40;;;;;;2355186;53;20950;-76
2022/09/29 04:38:50;;;;;;;2.30;0.93;;;13.70;67.40;;;;;;2370449;53;20891;-75
2022/09/29 04:41:16;;;;;;;2.00;0.70;;;13.60;67.30;;;;;;2370900;53;20930;-76
2022/09/29 04:43:43;;;;;;;2.45;0.60;;;13.60;67.40;;;;;;2370139;53;20994;-76
2022/09/29 04:46:09;;;;;;;2.53;0.77;;;13.60;67.50;;;;;;2369822;53;20915;-75
2022/09/29 04:48:36;;;;;;;3.30;0.80;;;13.60;67.60;;;;;;2489983;52;20934;-75
2022/09/29 04:51:03;;;;;;;1.50;0.52;;;13.50;67.60;;;;;;2370410;53;20927;-75
2022/09/29 04:53:29;;;;;;;1.55;0.60;;;13.50;67.60;;;;;;2487230;52;20927;-75
2022/09/29 04:55:55;;;;;;;1.12;0.45;;;13.50;67.60;;;;;;2389073;52;20996;-76
2022/09/29 04:58:21;;;;;;;4.22;0.60;;;13.50;67.60;;;;;;2369029;53;21026;-76
2022/09/29 05:00:48;;;;;;;1.87;0.70;;;13.50;67.60;;;;;;2410600;52;20970;-75
2022/09/29 05:03:14;;;;;;;1.87;0.62;;;13.50;67.60;;;;;;2416305;52;20950;-76
2022/09/29 05:05:41;;;;;;;1.92;0.70;;;13.50;67.70;;;;;;2421283;52;21815;-76
2022/09/29 05:08:08;;;;;;;0.98;0.50;;;13.40;67.60;;;;;;2584201;52;20970;-75
2022/09/29 05:10:34;;;;;;;2.97;0.50;;;13.40;68.40;;;;;;2371006;53;21592;-76
2022/09/29 05:13:00;;;;;;;5.05;1.00;;;13.40;67.70;;;;;;2370739;53;20926;-75
2022/09/29 05:15:27;;;;;;;1.95;0.50;;;13.40;67.70;;;;;;2359982;53;20946;-76
2022/09/29 05:17:53;;;;;;;3.70;0.60;;;13.40;67.70;;;;;;2442711;53;20914;-76
2022/09/29 05:20:19;;;;;;;1.35;0.60;;;13.40;67.80;;;;;;2370513;53;20954;-76
2022/09/29 05:22:46;;;;;;;1.62;0.50;;;13.30;67.70;;;;;;2370187;53;21005;-76
2022/09/29 05:25:14;;;;;;;1.83;0.52;;;13.40;67.80;;;;;;2422115;52;21080;-75
2022/09/29 05:27:40;;;;;;;2.50;0.60;;;13.40;67.70;;;;;;2351866;53;20941;-76
2022/09/29 05:30:10;;;;;;;1.67;0.68;;;13.40;67.70;;;;;;2349852;53;20966;-76
2022/09/29 05:32:41;;;;;;;1.10;0.50;;;13.30;67.70;;;;;;2482174;52;21775;-75
2022/09/29 05:35:08;;;;;;;2.60;0.77;;;13.30;67.70;;;;;;2594917;52;20994;-75
2022/09/29 05:37:34;;;;;;;1.08;0.52;;;13.30;67.80;;;;;;2443032;52;21030;-75
2022/09/29 05:40:00;;;;;;;0.70;0.40;;;13.30;67.90;;;;;;2371280;53;20942;-75
2022/09/29 05:42:27;;;;;;;1.92;0.60;;;13.30;67.90;;;;;;2370087;53;21057;-76
2022/09/29 05:44:53;;;;;;;1.52;0.62;;;13.30;67.90;;;;;;2370584;53;21859;-75
2022/09/29 05:47:21;;;;;;;1.62;0.57;;;13.30;67.90;;;;;;2371338;53;20953;-75
2022/09/29 05:49:48;;;;;;;1.48;0.70;;;13.30;68.00;;;;;;2616633;52;21006;-76
2022/09/29 05:52:16;;;;;;;2.92;0.70;;;13.30;68.00;;;;;;2326172;54;20977;-76
2022/09/29 05:54:44;;;;;;;2.22;0.80;;;13.30;68.00;;;;;;2342997;53;20969;-75
2022/09/29 05:57:11;;;;;;;1.10;0.57;;;13.30;68.00;;;;;;2351334;53;21004;-76
2022/09/29 05:59:38;;;;;;;1.62;0.50;;;13.30;68.00;;;;;;2342977;53;20981;-75
2022/09/29 06:02:04;;;;;;;2.05;0.75;;;13.40;68.00;;;;;;2342283;54;20964;-75
2022/09/29 06:04:30;;;;;;;1.40;0.60;;;13.30;67.90;;;;;;2347684;53;20964;-75
2022/09/29 06:06:57;;;;;;;3.70;0.68;;;13.30;67.90;;;;;;2338725;54;20988;-76
2022/09/29 06:09:24;;;;;;;1.70;0.70;;;13.40;68.00;;;;;;2352197;53;20927;-76
2022/09/29 06:11:51;;;;;;;1.80;0.77;;;13.30;67.90;;;;;;2345754;53;21762;-76
2022/09/29 06:14:18;;;;;;;2.22;0.90;;;13.30;68.00;;;;;;2369221;53;20926;-75
2022/09/29 06:16:44;;;;;;;2.12;0.80;;;13.40;68.10;;;;;;2622499;52;20982;-76
2022/09/29 06:19:11;;;;;;;2.20;0.80;;;13.40;68.10;;;;;;2389178;52;21005;-76
2022/09/29 06:21:38;;;;;;;2.42;0.95;;;13.40;68.20;;;;;;2373538;53;20907;-76
2022/09/29 06:24:06;;;;;;;3.25;1.30;;;13.40;68.20;;;;;;2490119;52;20966;-76
2022/09/29 06:26:32;;;;;;;2.90;1.50;;;13.40;68.30;;;;;;2515824;52;20934;-76
2022/09/29 06:28:58;;;;;;;2.47;1.05;;;13.40;68.30;;;;;;2390496;53;21364;-76
2022/09/29 06:31:26;;;;;;;4.30;1.10;;;13.40;68.40;;;;;;2583063;52;21875;-76
2022/09/29 06:33:56;;;;;;;2.50;1.12;;;13.50;68.50;;;;;;2355810;52;21007;-77
2022/09/29 06:39:36;;;;;;;2.92;1.27;;;13.50;68.40;;;;;;2403350;53;20898;-78
2022/09/29 06:42:04;;;;;;;2.33;1.30;;;13.50;68.40;;;;;;2351259;53;20961;-75
2022/09/29 06:44:30;;;;;;;3.10;1.90;;;13.50;68.40;;;;;;2351456;52;20967;-76
2022/09/29 06:46:56;;;;;;;5.85;2.05;;;13.50;68.40;;;;;;2591237;52;21021;-72
2022/09/29 06:49:23;;;;;;;6.35;2.00;;;13.60;68.50;;;;;;2370387;53;21407;-72
2022/09/29 06:51:49;;;;;;;2.80;1.70;;;13.60;68.60;;;;;;2369896;53;20953;-73
2022/09/29 06:54:19;;;;;;;3.05;1.85;;;13.60;68.60;;;;;;2349016;53;20978;-74
2022/09/29 06:56:51;;;;;;;3.12;1.30;;;13.60;68.50;;;;;;2371003;53;20906;-74
2022/09/29 06:59:18;;;;;;;2.47;1.12;;;13.60;68.50;;;;;;2374114;53;20935;-74
2022/09/29 07:01:48;;;;;;;3.60;0.98;;;13.70;68.60;;;;;;2347211;53;21474;-74
2022/09/29 07:04:15;;;;;;;2.40;1.17;;;13.70;68.60;;;;;;2366824;53;20998;-73
2022/09/29 07:06:43;;;;;;;2.97;0.80;;;13.70;68.60;;;;;;2511319;52;20926;-72
2022/09/29 07:09:14;;;;;;;2.95;0.90;;;13.70;68.60;;;;;;2487006;52;20970;-72
2022/09/29 07:11:47;;;;;;;2.28;0.90;;;13.80;68.60;;;;;;2346645;53;21008;-75
2022/09/29 07:14:20;;;;;;;1.67;0.77;;;13.80;68.60;;;;;;2343256;53;21969;-73
2022/09/29 07:16:49;;;;;;;2.00;0.75;;;13.80;68.60;;;;;;2360381;53;21801;-73
2022/09/29 07:19:16;;;;;;;2.62;1.00;;;13.80;68.50;;;;;;2334804;53;20992;-72
2022/09/29 07:21:47;;;;;;;2.40;1.00;;;13.90;68.70;;;;;;2345025;53;21008;-74
2022/09/29 07:24:18;;;;;;;2.72;0.82;;;13.90;68.60;;;;;;2401411;53;21013;-74
2022/09/29 07:26:44;;;;;;;3.08;1.30;;;13.90;68.50;;;;;;2568397;52;21038;-73
2022/09/29 07:29:10;;;;;;;3.42;1.20;;;13.90;68.60;;;;;;2379790;52;21496;-74
2022/09/29 07:31:40;;;;;;;1.87;0.82;;;13.90;68.70;;;;;;2366071;53;20882;-73
2022/09/29 07:34:13;;;;;;;;;;;14.00;68.80;;;;;;2370064;53;21371;-74
2022/09/29 07:36:39;;;;;;;1.85;0.82;;;14.00;68.40;;;;;;2370783;53;20716;-73
2022/09/29 07:39:06;;;;;;;3.37;1.55;;;14.00;68.70;;;;;;2369848;53;20946;-73
2022/09/29 07:41:32;;;;;;;2.87;1.35;;;14.10;68.90;;;;;;2370384;53;21495;-72
2022/09/29 07:43:59;;;;;;;3.30;1.42;;;14.10;68.90;;;;;;2370479;53;20982;-73
2022/09/29 07:46:27;;;;;;;4.03;1.95;;;14.10;68.80;;;;;;2370416;53;20934;-73
2022/09/29 07:48:53;;;;;;;4.90;1.73;;;14.20;68.90;;;;;;2621682;52;21014;-74
2022/09/29 07:51:20;;;;;;;4.18;1.98;;;14.20;68.90;;;;;;2510218;52;21010;-73
2022/09/29 07:53:46;;;;;;;5.07;2.60;;;14.20;68.90;;;;;;2483907;52;20970;-72
2022/09/29 07:56:14;;;;;;;3.65;2.00;;;14.30;69.10;;;;;;2368055;53;21055;-73
2022/09/29 07:58:41;;;;;;;5.07;2.37;;;14.30;69.10;;;;;;2369360;53;21249;-74
2022/09/29 08:01:11;;;;;;;4.28;2.15;;;14.40;69.10;;;;;;2371039;53;21007;-74
2022/09/29 08:03:41;;;;;;;6.07;2.08;;;14.40;69.20;;;;;;2623216;52;21051;-71
2022/09/29 08:06:07;;;;;;;4.15;1.60;;;14.40;69.10;;;;;;2370348;53;21010;-75
2022/09/29 08:08:37;;;;;;;5.72;1.85;;;14.50;69.20;;;;;;2364308;53;20956;-73
2022/09/29 08:11:05;;;;;;;5.10;1.50;;;14.50;69.10;;;;;;2618468;52;21026;-73
2022/09/29 08:13:34;;;;;;;3.67;1.20;;;14.50;69.10;;;;;;2370845;53;20918;-73
2022/09/29 08:16:02;;;;;;;5.00;2.72;;;14.60;69.20;;;;;;2371139;53;20938;-73
2022/09/29 08:18:28;;;;;;;4.70;1.75;;;14.60;69.20;;;;;;2366716;53;20945;-74
2022/09/29 08:20:55;;;;;;;3.22;1.60;;;14.70;69.40;;;;;;2616020;52;20924;-72
2022/09/29 08:23:22;;;;;;;4.12;1.33;;;14.70;69.40;;;;;;2463949;52;20946;-73
2022/09/29 08:25:49;;;;;;;2.67;0.95;;;14.70;69.40;;;;;;2373092;52;20989;-74
2022/09/29 08:28:20;;;;;;;4.75;1.37;;;14.80;69.40;;;;;;2367525;53;21013;-73
2022/09/29 08:30:54;;;;;;;2.22;0.80;;;14.80;69.40;;;;;;2570650;52;20922;-73
2022/09/29 08:33:20;;;;;;;2.78;0.85;;;14.90;69.40;;;;;;2370756;53;21045;-73
2022/09/29 08:35:54;;;;;;;3.72;1.10;;;14.90;69.20;;;;;;2370971;53;20994;-73
2022/09/29 08:38:21;;;;;;;2.67;1.05;;;15.00;69.00;;;;;;2367744;53;20938;-75
2022/09/29 08:40:47;;;;;;;2.78;1.08;;;15.00;69.80;;;;;;2371047;53;20938;-74
2022/09/29 08:43:29;;;;;;;2.62;1.10;;;15.00;69.00;;;;;;2370021;53;20893;-73
2022/09/29 08:46:22;;;;;;;3.55;1.10;;;15.10;68.90;;;;;;2366392;53;21825;-72
2022/09/29 08:48:55;;;;;;;2.60;1.20;;;15.10;68.90;;;;;;2413153;52;20958;-75
2022/09/29 08:51:50;;;;;;;3.35;1.30;;;15.20;69.10;;;;;;2369160;53;20945;-73
2022/09/29 08:54:32;;;;;;;3.83;1.48;;;15.20;68.90;;;;;;2373762;53;20925;-73
2022/09/29 08:57:04;;;;;;;3.92;1.67;;;15.20;68.90;;;;;;2397743;53;20903;-73
2022/09/29 08:59:30;;;;;;;2.50;1.10;;;15.30;69.00;;;;;;2371549;53;21809;-75
2022/09/29 09:02:33;;;;;;;2.60;1.15;;;15.30;68.90;;;;;;2366241;53;20898;-73
2022/09/29 09:08:47;;;;;;;1.80;0.80;;;15.30;68.50;;;;;;2416268;52;21419;-74
2022/09/29 09:12:14;;;;;;;2.08;0.80;;;15.40;68.30;;;;;;2391823;52;20953;-74
2022/09/29 09:16:34;;;;;;;1.23;0.60;;;15.50;68.20;;;;;;2365781;53;20914;-74
2022/09/29 09:19:40;;;;;;;2.30;0.57;;;15.50;68.40;;;;;;2369780;53;21104;-74
2022/09/29 09:22:23;;;;;;;2.08;0.80;;;15.50;68.50;;;;;;2370519;53;20965;-73
2022/09/29 09:26:42;;;;;;;2.10;0.80;;;15.50;68.30;;;;;;2497375;52;20938;-73
2022/09/29 09:29:31;;;;;;;1.62;0.62;;;15.50;68.00;;;;;;2347628;53;1386678;-74
2022/09/29 09:32:13;;;;;;;1.77;0.60;;;15.60;68.30;;;;;;2479747;52;21006;-74
2022/09/29 09:34:49;;;;;;;3.45;0.77;;;15.60;68.40;;;;;;2555781;52;20953;-73
2022/09/29 09:37:38;;;;;;;2.67;0.88;;;15.60;68.60;;;;;;2501769;53;20978;-73
2022/09/29 09:40:40;;;;;;;1.52;0.60;;;15.60;68.50;;;;;;2373056;53;20985;-73
2022/09/29 09:43:42;;;;;;;1.30;0.60;;;15.70;68.50;;;;;;2373295;53;21064;-73
2022/09/29 09:46:29;;;;;;;1.30;0.43;;;15.70;68.70;;;;;;2366710;53;20957;-74
2022/09/29 09:49:21;;;;;;;1.73;0.57;;;15.70;68.50;;;;;;2594023;52;20914;-73
2022/09/29 09:52:20;;;;;;;2.60;0.55;;;15.70;68.50;;;;;;2369929;53;20906;-75
2022/09/29 09:54:53;;;;;;;2.15;0.75;;;15.70;68.20;;;;;;2368643;53;20954;-74
2022/09/29 09:58:44;;;;;;;1.90;0.70;;;15.80;68.20;;;;;;2370241;53;20998;-74
2022/09/29 10:01:13;;;;;;;3.37;0.70;;;15.80;68.00;;;;;;2388372;53;21556;-73
2022/09/29 10:03:39;;;;;;;1.65;0.57;;;15.80;68.40;;;;;;2388548;53;20938;-74
2022/09/29 10:06:06;;;;;;;2.75;0.68;;;15.80;68.50;;;;;;2370526;53;21529;-74
2022/09/29 10:08:38;;;;;;;2.95;0.75;;;15.90;68.60;;;;;;2363744;53;21493;-73
2022/09/29 10:12:07;;;;;;;2.45;0.85;;;15.90;68.70;;;;;;2357958;53;22119;-73
2022/09/29 10:14:33;;;;;;;1.42;0.62;;;15.90;67.90;;;;;;2370086;53;20939;-74
2022/09/29 10:17:06;;;;;;;2.15;0.80;;;15.90;68.40;;;;;;2349242;53;20991;-74
2022/09/29 10:19:51;;;;;;;1.80;0.60;;;16.00;68.50;;;;;;2370464;53;20934;-73
2022/09/29 10:22:21;;;;;;;2.55;0.70;;;16.00;68.30;;;;;;2623524;52;21053;-73
2022/09/29 10:24:47;;;;;;;1.73;0.60;;;16.00;68.70;;;;;;2466474;52;21416;-73
2022/09/29 10:27:20;;;;;;;2.47;0.68;;;16.10;68.70;;;;;;2438829;52;21011;-74
2022/09/29 10:29:49;;;;;;;3.67;1.00;;;16.10;68.50;;;;;;2370808;53;21980;-73
2022/09/29 10:32:22;;;;;;;2.90;1.05;;;16.20;68.80;;;;;;2372149;53;21006;-73
2022/09/29 10:34:50;;;;;;;2.53;0.90;;;16.20;68.60;;;;;;2370151;53;21014;-73
2022/09/29 10:37:25;;;;;;;2.42;1.15;;;16.30;68.80;;;;;;2492955;52;20990;-73
2022/09/29 10:40:22;;;;;;;2.40;0.95;;;16.30;68.70;;;;;;2368509;53;21372;-74
2022/09/29 10:42:50;;;;;;;2.20;0.77;;;16.40;68.40;;;;;;2371566;53;20982;-74
2022/09/29 10:45:29;;;;;;;1.73;0.70;;;16.40;68.60;;;;;;2536578;52;20954;-74
2022/09/29 10:48:13;;;;;;;2.00;0.70;;;16.50;68.50;;;;;;2371025;53;20942;-73
2022/09/29 10:51:02;;;;;;;2.20;0.62;;;16.50;68.20;;;;;;2434344;52;21754;-74
2022/09/29 10:53:43;;;;;;;2.58;0.68;;;16.60;67.90;;;;;;2350085;53;21021;-74
2022/09/29 10:56:29;;;;;;;2.28;0.82;;;16.70;67.90;;;;;;2622563;52;20918;-73
2022/09/29 10:58:58;;;;;;;3.25;0.90;;;16.70;67.50;;;;;;2424989;52;21533;-73
2022/09/29 11:01:28;;;;;;;2.15;0.68;;;16.70;67.80;;;;;;2465345;52;20922;-73
2022/09/29 11:04:03;;;;;;;1.70;0.62;;;16.80;68.00;;;;;;2369694;53;20942;-73
2022/09/29 11:06:34;;;;;;;1.42;0.50;;;16.80;67.80;;;;;;2369905;53;21022;-73
2022/09/29 11:09:06;;;;;;;1.65;0.70;;;16.90;68.00;;;;;;2370503;53;20958;-74
2022/09/29 11:11:39;;;;;;;3.25;0.88;;;16.90;67.90;;;;;;2504691;52;21858;-73
2022/09/29 11:15:33;;;;;;;2.97;1.00;;;16.90;67.80;;;;;;2370068;53;20938;-74
2022/09/29 11:17:59;;;;;;;2.25;0.80;;;17.00;67.80;;;;;;2370629;53;21017;-76
2022/09/29 11:20:29;;;;;;;1.27;0.60;;;17.00;67.60;;;;;;2376324;52;20926;-73
2022/09/29 11:23:13;;;;;;;1.50;0.70;;;17.10;67.70;;;;;;2369589;53;20910;-73
2022/09/29 11:30:49;;;;;;;4.30;0.90;;;17.10;67.70;;;;;;2370155;53;20974;-73
2022/09/29 11:36:43;;;;;;;2.33;0.90;;;17.30;67.50;;;;;;2359132;53;21015;-73
2022/09/29 11:39:44;;;;;;;2.20;0.90;;;17.30;67.80;;;;;;2372255;53;20941;-74
2022/09/29 11:43:59;;;;;;;2.20;0.80;;;17.30;67.10;;;;;;2353615;53;21005;-74
2022/09/29 11:46:37;;;;;;;2.90;1.12;;;17.40;67.10;;;;;;2370310;53;21287;-75
2022/09/29 11:50:01;;;;;;;3.53;1.30;;;17.40;67.10;;;;;;2350636;53;21061;-73
2022/09/29 11:52:55;;;;;;;2.87;1.00;;;17.40;66.40;;;;;;2438954;53;20929;-74
2022/09/29 11:55:54;;;;;;;2.10;0.98;;;17.50;66.60;;;;;;2341899;53;20984;-73
2022/09/29 12:01:17;;;;;;;2.30;0.90;;;17.50;66.80;;;;;;2341804;53;21462;-74
2022/09/29 12:05:18;;;;;;;2.25;0.80;;;17.60;66.50;;;;;;2342522;53;20933;-73
2022/09/29 12:08:17;;;;;;;1.83;0.73;;;17.50;66.80;;;;;;2622279;52;21431;-72
2022/09/29 12:11:10;;;;;;;3.37;1.00;;;17.50;66.40;;;;;;2387292;53;21753;-73
2022/09/29 12:14:07;;;;;;;2.33;0.70;;;17.50;66.20;;;;;;2588584;52;21432;-74
2022/09/29 12:16:35;;;;;;;1.90;0.80;;;17.60;66.40;;;;;;2588228;52;20960;-73
2022/09/29 12:19:12;;;;;;;2.60;0.80;;;17.60;66.80;;;;;;2342367;53;21016;-73
2022/09/29 12:21:41;;;;;;;4.72;2.37;;;17.60;66.60;;;;;;2342634;53;21463;-74
2022/09/29 12:24:18;;;;;;;3.95;1.80;;;17.60;66.80;;;;;;2342352;53;20960;-73
2022/09/29 12:26:45;;;;;;;3.97;1.65;;;17.70;66.80;;;;;;2343352;53;21040;-74
2022/09/29 12:29:40;;;;;;;3.42;1.37;;;17.70;66.80;;;;;;2342863;53;20925;-73
2022/09/29 12:32:17;;;;;;;2.40;1.02;;;17.70;65.60;;;;;;2342256;53;20897;-73
2022/09/29 12:34:52;;;;;;;3.85;1.17;;;17.70;66.10;;;;;;2517012;52;20919;-74
2022/09/29 12:38:51;;;;;;;2.37;1.00;;;17.70;66.10;;;;;;2570952;52;20974;-75
2022/09/29 12:41:22;;;;;;;2.58;1.10;;;17.80;65.40;;;;;;2442783;52;20958;-74
2022/09/29 12:43:53;;;;;;;2.40;0.85;;;17.80;65.90;;;;;;2416943;52;21485;-73
2022/09/29 12:46:47;;;;;;;3.87;1.07;;;17.80;65.80;;;;;;2344993;53;20937;-73
2022/09/29 12:49:22;;;;;;;4.12;1.45;;;17.80;65.20;;;;;;2352665;53;21466;-74
2022/09/29 12:51:49;;;;;;;4.43;1.05;;;17.80;65.50;;;;;;2346347;53;20944;-73
2022/09/29 12:54:27;;;;;;;2.87;1.10;;;17.80;65.80;;;;;;2342775;53;21190;-74
2022/09/29 12:57:54;;;;;;;2.45;0.90;;;17.80;65.50;;;;;;2342919;53;21430;-74
2022/09/29 13:00:20;;;;;;;3.12;0.77;;;17.80;64.90;;;;;;2342265;53;20947;-74
2022/09/29 13:06:57;;;;;;;3.15;0.95;;;17.80;65.60;;;;;;2342500;53;20910;-73
2022/09/29 13:09:34;;;;;;;;;;;17.80;64.80;;;;;;2364050;54;21005;-73
2022/09/29 13:12:31;;;;;;;0.90;0.43;;;17.80;64.90;;;;;;2347128;53;20127;-73
2022/09/29 13:16:40;;;;;;;1.40;0.50;;;17.90;65.20;;;;;;2342994;53;21283;-73
2022/09/29 13:19:40;;;;;;;1.65;0.60;;;17.80;64.50;;;;;;2342862;53;20941;-73
2022/09/29 13:22:51;;;;;;;1.37;0.55;;;17.80;64.50;;;;;;2588907;52;20967;-74
2022/09/29 13:28:57;;;;;;;1.42;0.60;;;17.80;64.90;;;;;;2362835;52;20966;-74
2022/09/29 13:31:26;;;;;;;1.37;0.50;;;17.80;65.00;;;;;;2590047;52;20935;-74
2022/09/29 13:33:55;;;;;;;1.35;0.50;;;17.80;65.10;;;;;;2332740;54;21011;-73
2022/09/29 13:36:42;;;;;;;1.98;0.68;;;17.80;65.10;;;;;;2352914;53;20925;-74
2022/09/29 13:39:26;;;;;;;1.25;0.60;;;17.80;65.20;;;;;;2588571;52;21512;-73
2022/09/29 13:41:54;;;;;;;1.45;0.50;;;17.80;64.70;;;;;;2366397;53;20922;-73
2022/09/29 13:44:27;;;;;;;0.90;0.40;;;17.80;65.10;;;;;;2357751;53;20950;-73
2022/09/29 13:46:54;;;;;;;1.02;0.40;;;17.80;65.20;;;;;;2372077;53;21109;-74
2022/09/29 13:49:27;;;;;;;1.92;0.57;;;17.80;65.20;;;;;;2348813;53;21042;-74
2022/09/29 13:52:39;;;;;;;1.33;0.47;;;17.80;65.20;;;;;;2589323;52;21714;-73
2022/09/29 13:55:46;;;;;;;1.12;0.50;;;17.80;64.60;;;;;;2370374;53;20937;-73
2022/09/29 13:59:10;;;;;;;1.12;0.40;;;17.80;64.80;;;;;;2368409;53;20930;-74
2022/09/29 14:01:38;;;;;;;1.27;0.68;;;17.80;64.90;;;;;;2345728;53;21004;-74
2022/09/29 14:04:42;;;;;;;1.30;0.47;;;17.90;65.30;;;;;;2342945;53;21015;-73
2022/09/29 14:07:11;;;;;;;1.50;0.47;;;17.90;64.60;;;;;;2590294;52;20951;-74